sensor_id;sensor_type;location;lat;lon;timestamp;pressure;altitude;pressure_sealevel;temperature;humidity
80798;BME280;70202;52.238;10.680;2023-07-16T00:10:14;99495.53;;;22.51;66.79
80798;BME280;70202;52.238;10.680;2023-07-16T00:12:26;99494.94;;;22.57;66.83
80798;BME280;70202;52.238;10.680;2023-07-16T00:13:26;99508.03;;;22.64;67.44
80798;BME280;70202;52.238;10.680;2023-07-16T00:14:26;99490.09;;;22.59;67.42
80798;BME280;70202;52.238;10.680;2023-07-16T00:15:27;99472.25;;;22.43;67.52
80798;BME280;70202;52.238;10.680;2023-07-16T00:16:27;99458.50;;;22.42;67.69
80798;BME280;70202;52.238;10.680;2023-07-16T00:17:28;99486.91;;;22.54;67.75
80798;BME280;70202;52.238;10.680;2023-07-16T00:18:28;99496.38;;;22.61;67.68
80798;BME280;70202;52.238;10.680;2023-07-16T00:19:29;99399.88;;;22.00;67.81
80798;BME280;70202;52.238;10.680;2023-07-16T00:20:30;99460.00;;;22.36;68.13
80798;BME280;70202;52.238;10.680;2023-07-16T00:21:31;99466.34;;;22.46;68.12
80798;BME280;70202;52.238;10.680;2023-07-16T00:22:31;99491.28;;;22.56;68.49
80798;BME280;70202;52.238;10.680;2023-07-16T00:23:32;99453.59;;;22.36;68.42
80798;BME280;70202;52.238;10.680;2023-07-16T00:28:03;99510.47;;;22.50;68.88
80798;BME280;70202;52.238;10.680;2023-07-16T00:29:03;99496.94;;;22.37;69.08
80798;BME280;70202;52.238;10.680;2023-07-16T00:33:34;99531.34;;;22.26;69.28
80798;BME280;70202;52.238;10.680;2023-07-16T00:34:35;99528.41;;;22.28;69.37
80798;BME280;70202;52.238;10.680;2023-07-16T00:35:35;99554.53;;;22.35;69.38
80798;BME280;70202;52.238;10.680;2023-07-16T00:36:35;99561.81;;;22.36;69.55
80798;BME280;70202;52.238;10.680;2023-07-16T00:37:36;99545.06;;;22.28;69.45
80798;BME280;70202;52.238;10.680;2023-07-16T00:38:36;99560.06;;;22.35;69.65
80798;BME280;70202;52.238;10.680;2023-07-16T00:39:36;99551.78;;;22.25;69.72
80798;BME280;70202;52.238;10.680;2023-07-16T00:41:41;99571.31;;;22.33;70.09
80798;BME280;70202;52.238;10.680;2023-07-16T00:42:41;99567.09;;;22.29;69.78
80798;BME280;70202;52.238;10.680;2023-07-16T00:43:42;99561.53;;;22.29;69.87
80798;BME280;70202;52.238;10.680;2023-07-16T00:44:42;99566.38;;;22.27;69.84
80798;BME280;70202;52.238;10.680;2023-07-16T00:45:45;99578.06;;;22.31;69.87
80798;BME280;70202;52.238;10.680;2023-07-16T00:46:45;99568.75;;;22.22;69.85
80798;BME280;70202;52.238;10.680;2023-07-16T00:47:46;99597.44;;;22.40;70.04
80798;BME280;70202;52.238;10.680;2023-07-16T00:48:47;99566.53;;;22.26;70.14
80798;BME280;70202;52.238;10.680;2023-07-16T00:49:47;99554.31;;;22.18;70.11
80798;BME280;70202;52.238;10.680;2023-07-16T00:50:48;99562.16;;;22.23;70.22
80798;BME280;70202;52.238;10.680;2023-07-16T00:51:48;99588.25;;;22.40;70.28
80798;BME280;70202;52.238;10.680;2023-07-16T00:52:49;99557.66;;;22.22;70.17
80798;BME280;70202;52.238;10.680;2023-07-16T00:53:50;99591.59;;;22.34;70.26
80798;BME280;70202;52.238;10.680;2023-07-16T00:54:50;99558.19;;;22.26;70.38
80798;BME280;70202;52.238;10.680;2023-07-16T00:55:51;99581.94;;;22.38;70.37
80798;BME280;70202;52.238;10.680;2023-07-16T00:56:52;99570.59;;;22.31;70.31
80798;BME280;70202;52.238;10.680;2023-07-16T01:00:13;99540.25;;;22.20;70.33
80798;BME280;70202;52.238;10.680;2023-07-16T01:01:13;99541.31;;;22.19;70.09
80798;BME280;70202;52.238;10.680;2023-07-16T01:02:14;99561.69;;;22.28;70.56
80798;BME280;70202;52.238;10.680;2023-07-16T01:03:15;99562.97;;;22.33;70.61
80798;BME280;70202;52.238;10.680;2023-07-16T01:04:16;99553.69;;;22.25;70.26
80798;BME280;70202;52.238;10.680;2023-07-16T01:05:16;99572.34;;;22.32;70.45
80798;BME280;70202;52.238;10.680;2023-07-16T01:06:35;99577.19;;;22.30;70.27
80798;BME280;70202;52.238;10.680;2023-07-16T01:07:37;99575.28;;;22.31;70.44
80798;BME280;70202;52.238;10.680;2023-07-16T01:08:48;99565.19;;;22.30;70.52
80798;BME280;70202;52.238;10.680;2023-07-16T01:09:50;99555.13;;;22.29;70.55
80798;BME280;70202;52.238;10.680;2023-07-16T01:10:51;99546.78;;;22.29;70.60
80798;BME280;70202;52.238;10.680;2023-07-16T01:11:52;99483.88;;;21.92;70.74
80798;BME280;70202;52.238;10.680;2023-07-16T01:12:55;99538.38;;;22.20;70.58
80798;BME280;70202;52.238;10.680;2023-07-16T01:13:57;99534.72;;;22.20;70.97
80798;BME280;70202;52.238;10.680;2023-07-16T01:14:58;99530.78;;;22.23;70.58
80798;BME280;70202;52.238;10.680;2023-07-16T01:15:58;99505.97;;;22.11;70.48
80798;BME280;70202;52.238;10.680;2023-07-16T01:17:02;99527.53;;;22.27;70.71
80798;BME280;70202;52.238;10.680;2023-07-16T01:18:04;99453.59;;;21.99;70.62
80798;BME280;70202;52.238;10.680;2023-07-16T01:19:05;99479.06;;;22.21;70.96
80798;BME280;70202;52.238;10.680;2023-07-16T01:20:06;99460.53;;;22.22;70.92
80798;BME280;70202;52.238;10.680;2023-07-16T01:21:06;99451.66;;;22.18;70.68
80798;BME280;70202;52.238;10.680;2023-07-16T01:23:35;99486.03;;;22.26;70.99
80798;BME280;70202;52.238;10.680;2023-07-16T01:26:18;99516.03;;;22.22;71.11
80798;BME280;70202;52.238;10.680;2023-07-16T01:27:50;99543.19;;;22.18;70.99
80798;BME280;70202;52.238;10.680;2023-07-16T01:30:18;99547.88;;;22.08;70.94
80798;BME280;70202;52.238;10.680;2023-07-16T01:31:19;99534.44;;;22.04;71.04
80798;BME280;70202;52.238;10.680;2023-07-16T01:32:22;99523.97;;;21.98;71.17
80798;BME280;70202;52.238;10.680;2023-07-16T01:33:23;99528.34;;;22.00;71.29
80798;BME280;70202;52.238;10.680;2023-07-16T01:34:25;99533.28;;;22.06;71.47
80798;BME280;70202;52.238;10.680;2023-07-16T01:35:27;99493.25;;;21.81;71.25
80798;BME280;70202;52.238;10.680;2023-07-16T01:36:29;99519.59;;;21.95;71.46
80798;BME280;70202;52.238;10.680;2023-07-16T01:37:29;99537.97;;;22.06;71.61
80798;BME280;70202;52.238;10.680;2023-07-16T01:38:30;99539.72;;;22.07;71.75
80798;BME280;70202;52.238;10.680;2023-07-16T01:39:31;99516.81;;;21.95;71.77
80798;BME280;70202;52.238;10.680;2023-07-16T01:40:35;99520.59;;;22.04;71.71
80798;BME280;70202;52.238;10.680;2023-07-16T01:41:35;99480.38;;;21.90;71.75
80798;BME280;70202;52.238;10.680;2023-07-16T01:42:36;99502.50;;;22.00;71.75
80798;BME280;70202;52.238;10.680;2023-07-16T01:43:36;99504.41;;;21.99;71.88
80798;BME280;70202;52.238;10.680;2023-07-16T01:44:36;99506.47;;;21.97;71.85
80798;BME280;70202;52.238;10.680;2023-07-16T01:45:37;99492.50;;;21.89;71.75
80798;BME280;70202;52.238;10.680;2023-07-16T01:46:37;99516.25;;;22.01;71.70
80798;BME280;70202;52.238;10.680;2023-07-16T01:47:46;99539.84;;;22.15;71.87
80798;BME280;70202;52.238;10.680;2023-07-16T01:48:48;99539.75;;;21.97;71.83
80798;BME280;70202;52.238;10.680;2023-07-16T01:49:49;99575.06;;;22.14;71.75
80798;BME280;70202;52.238;10.680;2023-07-16T01:50:49;99565.72;;;22.06;71.91
80798;BME280;70202;52.238;10.680;2023-07-16T01:51:49;99539.34;;;21.92;71.95
80798;BME280;70202;52.238;10.680;2023-07-16T01:52:50;99552.41;;;22.00;71.76
80798;BME280;70202;52.238;10.680;2023-07-16T01:53:50;99567.59;;;22.05;71.95
80798;BME280;70202;52.238;10.680;2023-07-16T01:54:51;99575.94;;;22.05;71.69
80798;BME280;70202;52.238;10.680;2023-07-16T01:55:51;99525.66;;;21.81;71.98
80798;BME280;70202;52.238;10.680;2023-07-16T01:56:51;99555.94;;;22.02;71.87
80798;BME280;70202;52.238;10.680;2023-07-16T01:57:52;99577.09;;;22.12;71.85
80798;BME280;70202;52.238;10.680;2023-07-16T01:58:52;99560.00;;;22.07;71.94
80798;BME280;70202;52.238;10.680;2023-07-16T01:59:52;99550.97;;;22.05;71.74
80798;BME280;70202;52.238;10.680;2023-07-16T02:00:53;99560.44;;;22.12;71.93
80798;BME280;70202;52.238;10.680;2023-07-16T02:01:53;99535.19;;;22.06;71.81
80798;BME280;70202;52.238;10.680;2023-07-16T02:02:54;99529.47;;;22.07;71.88
80798;BME280;70202;52.238;10.680;2023-07-16T02:03:54;99493.78;;;21.94;72.02
80798;BME280;70202;52.238;10.680;2023-07-16T02:04:54;99505.69;;;22.14;71.79
80798;BME280;70202;52.238;10.680;2023-07-16T02:05:55;99453.16;;;22.03;71.80
80798;BME280;70202;52.238;10.680;2023-07-16T02:06:55;99437.25;;;22.05;71.60
80798;BME280;70202;52.238;10.680;2023-07-16T02:07:56;99448.88;;;22.09;71.80
80798;BME280;70202;52.238;10.680;2023-07-16T02:08:56;99490.66;;;22.07;71.47
80798;BME280;70202;52.238;10.680;2023-07-16T02:09:56;99496.25;;;21.98;71.70
80798;BME280;70202;52.238;10.680;2023-07-16T02:10:57;99476.72;;;21.89;71.71
80798;BME280;70202;52.238;10.680;2023-07-16T02:11:57;99509.09;;;21.99;71.69
80798;BME280;70202;52.238;10.680;2023-07-16T02:12:58;99515.66;;;21.98;71.95
80798;BME280;70202;52.238;10.680;2023-07-16T02:13:58;99533.47;;;22.05;72.22
80798;BME280;70202;52.238;10.680;2023-07-16T02:14:58;99533.00;;;22.09;71.90
80798;BME280;70202;52.238;10.680;2023-07-16T02:15:59;99508.84;;;21.92;71.90
80798;BME280;70202;52.238;10.680;2023-07-16T02:16:59;99525.56;;;22.00;71.65
80798;BME280;70202;52.238;10.680;2023-07-16T02:17:59;99509.41;;;21.86;71.69
80798;BME280;70202;52.238;10.680;2023-07-16T02:19:00;99538.72;;;21.98;71.76
80798;BME280;70202;52.238;10.680;2023-07-16T02:20:00;99527.66;;;21.88;71.91
80798;BME280;70202;52.238;10.680;2023-07-16T02:21:01;99504.78;;;21.77;72.00
80798;BME280;70202;52.238;10.680;2023-07-16T02:22:02;99536.25;;;21.95;71.83
80798;BME280;70202;52.238;10.680;2023-07-16T02:23:02;99541.50;;;21.98;71.96
80798;BME280;70202;52.238;10.680;2023-07-16T02:24:03;99526.63;;;21.89;72.03
80798;BME280;70202;52.238;10.680;2023-07-16T02:25:04;99520.81;;;21.83;72.18
80798;BME280;70202;52.238;10.680;2023-07-16T02:26:04;99550.97;;;21.95;72.16
80798;BME280;70202;52.238;10.680;2023-07-16T02:27:05;99527.22;;;21.83;72.27
80798;BME280;70202;52.238;10.680;2023-07-16T02:28:06;99562.19;;;22.04;72.17
80798;BME280;70202;52.238;10.680;2023-07-16T02:29:06;99561.50;;;22.02;71.99
80798;BME280;70202;52.238;10.680;2023-07-16T02:30:09;99514.28;;;21.74;72.16
80798;BME280;70202;52.238;10.680;2023-07-16T02:31:09;99557.56;;;21.94;72.08
80798;BME280;70202;52.238;10.680;2023-07-16T02:32:10;99563.53;;;22.00;72.18
80798;BME280;70202;52.238;10.680;2023-07-16T02:33:10;99541.81;;;21.85;71.88
80798;BME280;70202;52.238;10.680;2023-07-16T02:34:10;99537.03;;;21.78;72.26
80798;BME280;70202;52.238;10.680;2023-07-16T02:35:11;99566.47;;;21.98;72.17
80798;BME280;70202;52.238;10.680;2023-07-16T02:36:11;99517.66;;;21.68;72.17
80798;BME280;70202;52.238;10.680;2023-07-16T02:37:12;99529.00;;;21.75;72.29
80798;BME280;70202;52.238;10.680;2023-07-16T02:38:12;99555.53;;;21.87;72.33
80798;BME280;70202;52.238;10.680;2023-07-16T02:39:12;99567.63;;;21.95;72.59
80798;BME280;70202;52.238;10.680;2023-07-16T02:40:13;99545.94;;;21.81;72.34
80798;BME280;70202;52.238;10.680;2023-07-16T02:41:13;99514.16;;;21.66;72.50
80798;BME280;70202;52.238;10.680;2023-07-16T02:42:13;99567.78;;;21.94;72.43
80798;BME280;70202;52.238;10.680;2023-07-16T02:43:14;99524.50;;;21.74;72.46
80798;BME280;70202;52.238;10.680;2023-07-16T02:44:15;99538.31;;;21.93;72.57
80798;BME280;70202;52.238;10.680;2023-07-16T02:45:15;99523.75;;;21.81;72.54
80798;BME280;70202;52.238;10.680;2023-07-16T02:46:16;99533.06;;;21.90;72.25
80798;BME280;70202;52.238;10.680;2023-07-16T02:47:16;99487.19;;;21.58;72.26
80798;BME280;70202;52.238;10.680;2023-07-16T02:48:17;99523.91;;;21.80;72.20
80798;BME280;70202;52.238;10.680;2023-07-16T02:49:17;99516.34;;;21.72;72.32
80798;BME280;70202;52.238;10.680;2023-07-16T02:50:17;99528.88;;;21.76;72.43
80798;BME280;70202;52.238;10.680;2023-07-16T02:51:18;99551.47;;;21.81;72.56
80798;BME280;70202;52.238;10.680;2023-07-16T02:52:18;99530.94;;;21.64;72.71
80798;BME280;70202;52.238;10.680;2023-07-16T02:53:19;99551.22;;;21.65;73.14
80798;BME280;70202;52.238;10.680;2023-07-16T02:54:19;99566.06;;;21.74;72.77
80798;BME280;70202;52.238;10.680;2023-07-16T02:55:19;99560.09;;;21.68;73.18
80798;BME280;70202;52.238;10.680;2023-07-16T02:56:20;99562.59;;;21.71;73.04
80798;BME280;70202;52.238;10.680;2023-07-16T02:57:21;99555.44;;;21.69;72.98
80798;BME280;70202;52.238;10.680;2023-07-16T02:58:22;99552.81;;;21.67;72.84
80798;BME280;70202;52.238;10.680;2023-07-16T02:59:22;99554.72;;;21.67;73.02
80798;BME280;70202;52.238;10.680;2023-07-16T03:00:23;99571.91;;;21.80;72.61
80798;BME280;70202;52.238;10.680;2023-07-16T03:01:23;99570.00;;;21.81;72.98
80798;BME280;70202;52.238;10.680;2023-07-16T03:02:24;99550.94;;;21.68;73.03
80798;BME280;70202;52.238;10.680;2023-07-16T03:03:24;99557.50;;;21.67;72.99
80798;BME280;70202;52.238;10.680;2023-07-16T03:04:24;99560.97;;;21.69;72.98
80798;BME280;70202;52.238;10.680;2023-07-16T03:05:26;99588.53;;;21.80;73.11
80798;BME280;70202;52.238;10.680;2023-07-16T03:06:27;99577.47;;;21.61;72.68
80798;BME280;70202;52.238;10.680;2023-07-16T03:07:27;99620.09;;;21.79;72.50
80798;BME280;70202;52.238;10.680;2023-07-16T03:08:27;99574.56;;;21.53;72.51
80798;BME280;70202;52.238;10.680;2023-07-16T03:09:31;99601.84;;;21.67;71.74
80798;BME280;70202;52.238;10.680;2023-07-16T03:10:32;99613.38;;;21.72;71.68
80798;BME280;70202;52.238;10.680;2023-07-16T03:11:32;99598.94;;;21.59;71.52
80798;BME280;70202;52.238;10.680;2023-07-16T03:12:33;99586.53;;;21.43;71.55
80798;BME280;70202;52.238;10.680;2023-07-16T03:13:33;99601.28;;;21.44;71.41
80798;BME280;70202;52.238;10.680;2023-07-16T03:14:33;99586.94;;;21.19;71.34
80798;BME280;70202;52.238;10.680;2023-07-16T03:15:34;99625.75;;;21.29;71.83
80798;BME280;70202;52.238;10.680;2023-07-16T03:16:34;99607.94;;;21.03;71.96
80798;BME280;70202;52.238;10.680;2023-07-16T03:17:34;99607.34;;;20.99;72.26
80798;BME280;70202;52.238;10.680;2023-07-16T03:18:35;99587.19;;;20.78;72.58
80798;BME280;70202;52.238;10.680;2023-07-16T03:19:35;99606.88;;;20.84;72.68
80798;BME280;70202;52.238;10.680;2023-07-16T03:20:36;99590.41;;;20.73;72.70
80798;BME280;70202;52.238;10.680;2023-07-16T03:21:37;99612.25;;;20.76;72.79
80798;BME280;70202;52.238;10.680;2023-07-16T03:22:37;99611.53;;;20.74;72.68
80798;BME280;70202;52.238;10.680;2023-07-16T03:23:37;99590.66;;;20.60;72.76
80798;BME280;70202;52.238;10.680;2023-07-16T03:24:38;99582.91;;;20.54;72.97
80798;BME280;70202;52.238;10.680;2023-07-16T03:25:38;99598.22;;;20.58;73.17
80798;BME280;70202;52.238;10.680;2023-07-16T03:26:39;99629.28;;;20.71;72.89
80798;BME280;70202;52.238;10.680;2023-07-16T03:27:39;99624.31;;;20.65;73.04
80798;BME280;70202;52.238;10.680;2023-07-16T03:28:40;99618.34;;;20.60;73.24
80798;BME280;70202;52.238;10.680;2023-07-16T03:29:40;99627.50;;;20.61;73.53
80798;BME280;70202;52.238;10.680;2023-07-16T03:30:45;99644.69;;;20.64;73.41
80798;BME280;70202;52.238;10.680;2023-07-16T03:31:46;99644.81;;;20.53;73.82
80798;BME280;70202;52.238;10.680;2023-07-16T03:32:46;99647.31;;;20.56;73.99
80798;BME280;70202;52.238;10.680;2023-07-16T03:37:40;99652.94;;;20.55;73.61
80798;BME280;70202;52.238;10.680;2023-07-16T03:38:40;99657.19;;;20.59;73.86
80798;BME280;70202;52.238;10.680;2023-07-16T03:43:34;99649.88;;;20.48;73.78
80798;BME280;70202;52.238;10.680;2023-07-16T03:44:34;99662.28;;;20.54;73.97
80798;BME280;70202;52.238;10.680;2023-07-16T03:45:35;99661.41;;;20.53;74.22
80798;BME280;70202;52.238;10.680;2023-07-16T03:46:35;99633.34;;;20.37;74.43
80798;BME280;70202;52.238;10.680;2023-07-16T03:47:36;99638.44;;;20.41;74.78
80798;BME280;70202;52.238;10.680;2023-07-16T03:48:36;99647.16;;;20.37;74.39
80798;BME280;70202;52.238;10.680;2023-07-16T03:49:37;99679.34;;;20.59;74.61
80798;BME280;70202;52.238;10.680;2023-07-16T03:50:37;99657.28;;;20.47;74.77
80798;BME280;70202;52.238;10.680;2023-07-16T03:51:38;99676.44;;;20.60;74.96
80798;BME280;70202;52.238;10.680;2023-07-16T03:52:38;99657.28;;;20.47;74.92
80798;BME280;70202;52.238;10.680;2023-07-16T03:53:38;99664.19;;;20.53;74.98
80798;BME280;70202;52.238;10.680;2023-07-16T03:54:39;99636.56;;;20.42;74.96
80798;BME280;70202;52.238;10.680;2023-07-16T03:55:39;99671.63;;;20.62;75.11
80798;BME280;70202;52.238;10.680;2023-07-16T03:56:39;99635.50;;;20.33;75.07
80798;BME280;70202;52.238;10.680;2023-07-16T03:57:40;99679.34;;;20.59;75.11
80798;BME280;70202;52.238;10.680;2023-07-16T03:58:41;99657.41;;;20.46;75.32
80798;BME280;70202;52.238;10.680;2023-07-16T03:59:42;99649.53;;;20.41;75.10
80798;BME280;70202;52.238;10.680;2023-07-16T04:00:42;99669.56;;;20.55;74.90
80798;BME280;70202;52.238;10.680;2023-07-16T04:01:44;99688.25;;;20.62;75.12
80798;BME280;70202;52.238;10.680;2023-07-16T04:02:44;99683.13;;;20.58;75.29
80798;BME280;70202;52.238;10.680;2023-07-16T04:03:45;99688.09;;;20.64;75.21
80798;BME280;70202;52.238;10.680;2023-07-16T04:04:45;99658.56;;;20.43;75.23
80798;BME280;70202;52.238;10.680;2023-07-16T04:05:45;99674.81;;;20.58;75.28
80798;BME280;70202;52.238;10.680;2023-07-16T04:06:46;99678.31;;;20.60;75.18
80798;BME280;70202;52.238;10.680;2023-07-16T04:07:46;99672.06;;;20.58;75.20
80798;BME280;70202;52.238;10.680;2023-07-16T04:08:46;99679.22;;;20.60;75.16
80798;BME280;70202;52.238;10.680;2023-07-16T04:09:47;99680.41;;;20.67;75.58
80798;BME280;70202;52.238;10.680;2023-07-16T04:10:47;99678.03;;;20.63;75.32
80798;BME280;70202;52.238;10.680;2023-07-16T04:11:48;99690.31;;;20.70;75.24
80798;BME280;70202;52.238;10.680;2023-07-16T04:12:48;99661.84;;;20.58;75.29
80798;BME280;70202;52.238;10.680;2023-07-16T04:13:48;99658.06;;;20.59;75.14
80798;BME280;70202;52.238;10.680;2023-07-16T04:14:49;99652.94;;;20.55;75.21
80798;BME280;70202;52.238;10.680;2023-07-16T04:15:49;99687.59;;;20.80;75.42
80798;BME280;70202;52.238;10.680;2023-07-16T04:16:49;99648.28;;;20.55;75.21
80798;BME280;70202;52.238;10.680;2023-07-16T04:17:50;99684.09;;;20.78;75.15
80798;BME280;70202;52.238;10.680;2023-07-16T04:18:50;99702.63;;;20.87;75.16
80798;BME280;70202;52.238;10.680;2023-07-16T04:19:51;99673.56;;;20.71;74.89
80798;BME280;70202;52.238;10.680;2023-07-16T04:20:51;99693.44;;;20.86;75.08
80798;BME280;70202;52.238;10.680;2023-07-16T04:21:52;99691.38;;;20.79;75.01
80798;BME280;70202;52.238;10.680;2023-07-16T04:22:52;99700.13;;;20.84;75.20
80798;BME280;70202;52.238;10.680;2023-07-16T04:23:52;99690.63;;;20.77;74.95
80798;BME280;70202;52.238;10.680;2023-07-16T04:24:53;99688.72;;;20.77;74.95
80798;BME280;70202;52.238;10.680;2023-07-16T04:25:55;99705.41;;;20.87;75.09
80798;BME280;70202;52.238;10.680;2023-07-16T04:26:55;99707.13;;;20.88;75.12
80798;BME280;70202;52.238;10.680;2023-07-16T04:27:56;99670.75;;;20.62;75.08
80798;BME280;70202;52.238;10.680;2023-07-16T04:28:56;99708.72;;;20.81;74.96
80798;BME280;70202;52.238;10.680;2023-07-16T04:29:57;99695.72;;;20.71;75.06
80798;BME280;70202;52.238;10.680;2023-07-16T04:30:57;99705.75;;;20.72;74.99
80798;BME280;70202;52.238;10.680;2023-07-16T04:31:58;99724.03;;;20.85;75.30
80798;BME280;70202;52.238;10.680;2023-07-16T04:32:58;99674.38;;;20.53;75.01
80798;BME280;70202;52.238;10.680;2023-07-16T04:33:59;99684.59;;;20.62;74.86
80798;BME280;70202;52.238;10.680;2023-07-16T04:34:59;99726.78;;;20.85;74.93
80798;BME280;70202;52.238;10.680;2023-07-16T04:35:59;99737.00;;;20.84;74.88
80798;BME280;70202;52.238;10.680;2023-07-16T04:37:00;99731.88;;;20.80;74.88
80798;BME280;70202;52.238;10.680;2023-07-16T04:38:00;99702.69;;;20.66;74.97
80798;BME280;70202;52.238;10.680;2023-07-16T04:39:00;99742.53;;;20.84;74.84
80798;BME280;70202;52.238;10.680;2023-07-16T04:40:01;99742.53;;;20.84;74.66
80798;BME280;70202;52.238;10.680;2023-07-16T04:41:02;99740.78;;;20.83;74.71
80798;BME280;70202;52.238;10.680;2023-07-16T04:42:02;99628.59;;;20.18;74.81
80798;BME280;70202;52.238;10.680;2023-07-16T04:43:03;99742.69;;;20.83;74.67
80798;BME280;70202;52.238;10.680;2023-07-16T04:44:04;99744.44;;;20.84;74.88
80798;BME280;70202;52.238;10.680;2023-07-16T04:45:05;99749.09;;;20.83;74.78
80798;BME280;70202;52.238;10.680;2023-07-16T04:46:05;99731.69;;;20.71;74.67
80798;BME280;70202;52.238;10.680;2023-07-16T04:47:06;99723.97;;;20.65;74.93
80798;BME280;70202;52.238;10.680;2023-07-16T04:48:06;99736.97;;;20.75;74.94
80798;BME280;70202;52.238;10.680;2023-07-16T04:49:07;99731.56;;;20.73;75.01
80798;BME280;70202;52.238;10.680;2023-07-16T04:50:07;99728.19;;;20.69;74.73
80798;BME280;70202;52.238;10.680;2023-07-16T04:51:08;99737.09;;;20.73;74.64
80798;BME280;70202;52.238;10.680;2023-07-16T04:52:08;99719.56;;;20.63;74.34
80798;BME280;70202;52.238;10.680;2023-07-16T04:53:09;99762.97;;;20.93;74.72
80798;BME280;70202;52.238;10.680;2023-07-16T04:54:10;99748.50;;;20.80;74.75
80798;BME280;70202;52.238;10.680;2023-07-16T04:55:10;99719.13;;;20.67;74.90
80798;BME280;70202;52.238;10.680;2023-07-16T04:56:12;99745.31;;;20.84;74.46
80798;BME280;70202;52.238;10.680;2023-07-16T04:57:13;99745.03;;;20.87;74.36
80798;BME280;70202;52.238;10.680;2023-07-16T04:58:14;99765.19;;;20.99;74.48
80798;BME280;70202;52.238;10.680;2023-07-16T04:59:14;99756.56;;;20.92;74.61
80798;BME280;70202;52.238;10.680;2023-07-16T05:00:15;99775.97;;;21.02;74.35
80798;BME280;70202;52.238;10.680;2023-07-16T05:01:15;99763.72;;;20.95;74.26
80798;BME280;70202;52.238;10.680;2023-07-16T05:02:15;99764.59;;;20.95;73.97
80798;BME280;70202;52.238;10.680;2023-07-16T05:03:17;99766.50;;;20.95;73.96
80798;BME280;70202;52.238;10.680;2023-07-16T05:04:17;99754.06;;;20.89;73.84
80798;BME280;70202;52.238;10.680;2023-07-16T05:05:18;99760.63;;;20.88;73.75
80798;BME280;70202;52.238;10.680;2023-07-16T05:06:18;99751.44;;;20.88;73.95
80798;BME280;70202;52.238;10.680;2023-07-16T05:07:18;99784.75;;;21.07;73.93
80798;BME280;70202;52.238;10.680;2023-07-16T05:08:19;99764.72;;;20.94;74.02
80798;BME280;70202;52.238;10.680;2023-07-16T05:09:19;99779.34;;;21.06;73.94
80798;BME280;70202;52.238;10.680;2023-07-16T05:10:20;99778.47;;;21.05;73.80
80798;BME280;70202;52.238;10.680;2023-07-16T05:11:21;99766.75;;;20.92;73.75
80798;BME280;70202;52.238;10.680;2023-07-16T05:12:21;99766.91;;;20.90;73.54
80798;BME280;70202;52.238;10.680;2023-07-16T05:13:22;99780.34;;;20.95;73.56
80798;BME280;70202;52.238;10.680;2023-07-16T05:14:26;99752.00;;;20.82;73.25
80798;BME280;70202;52.238;10.680;2023-07-16T05:15:26;99780.34;;;20.95;73.79
80798;BME280;70202;52.238;10.680;2023-07-16T05:16:27;99753.16;;;20.79;73.42
80798;BME280;70202;52.238;10.680;2023-07-16T05:17:27;99751.53;;;20.77;73.28
80798;BME280;70202;52.238;10.680;2023-07-16T05:18:27;99754.78;;;20.82;73.03
80798;BME280;70202;52.238;10.680;2023-07-16T05:19:28;99777.56;;;20.95;73.13
80798;BME280;70202;52.238;10.680;2023-07-16T05:20:28;99739.72;;;20.75;72.64
80798;BME280;70202;52.238;10.680;2023-07-16T05:21:29;99765.13;;;20.89;72.83
80798;BME280;70202;52.238;10.680;2023-07-16T05:22:29;99766.31;;;20.87;72.61
80798;BME280;70202;52.238;10.680;2023-07-16T05:23:29;99764.41;;;20.87;72.62
80798;BME280;70202;52.238;10.680;2023-07-16T05:24:31;99766.16;;;20.88;72.72
80798;BME280;70202;52.238;10.680;2023-07-16T05:25:31;99765.88;;;20.91;72.77
80798;BME280;70202;52.238;10.680;2023-07-16T05:26:32;99774.81;;;20.95;72.66
80798;BME280;70202;52.238;10.680;2023-07-16T05:27:33;99780.19;;;20.96;72.41
80798;BME280;70202;52.238;10.680;2023-07-16T05:28:33;99739.72;;;20.75;72.67
80798;BME280;70202;52.238;10.680;2023-07-16T05:29:34;99761.38;;;20.90;72.50
80798;BME280;70202;52.238;10.680;2023-07-16T05:30:34;99790.31;;;21.07;72.65
80798;BME280;70202;52.238;10.680;2023-07-16T05:31:34;99746.78;;;20.88;72.60
80798;BME280;70202;52.238;10.680;2023-07-16T05:32:35;99761.94;;;20.94;72.78
80798;BME280;70202;52.238;10.680;2023-07-16T05:33:36;99771.34;;;21.03;72.58
80798;BME280;70202;52.238;10.680;2023-07-16T05:34:36;99735.41;;;20.82;72.17
80798;BME280;70202;52.238;10.680;2023-07-16T05:35:37;99761.56;;;20.99;72.32
80798;BME280;70202;52.238;10.680;2023-07-16T05:36:37;99780.81;;;21.10;72.70
80798;BME280;70202;52.238;10.680;2023-07-16T05:37:38;99771.63;;;21.00;71.97
80798;BME280;70202;52.238;10.680;2023-07-16T05:38:38;99777.34;;;21.08;72.26
80798;BME280;70202;52.238;10.680;2023-07-16T05:39:39;99776.47;;;21.07;71.85
80798;BME280;70202;52.238;10.680;2023-07-16T05:40:39;99787.84;;;21.14;71.92
80798;BME280;70202;52.238;10.680;2023-07-16T05:41:40;99804.47;;;21.23;71.91
80798;BME280;70202;52.238;10.680;2023-07-16T05:42:41;99777.94;;;21.11;71.26
80798;BME280;70202;52.238;10.680;2023-07-16T05:43:41;99783.59;;;21.10;71.40
80798;BME280;70202;52.238;10.680;2023-07-16T05:44:41;99788.44;;;21.17;71.13
80798;BME280;70202;52.238;10.680;2023-07-16T05:45:42;99775.84;;;21.04;71.42
80798;BME280;70202;52.238;10.680;2023-07-16T05:46:43;99778.94;;;21.10;71.62
80798;BME280;70202;52.238;10.680;2023-07-16T05:47:43;99803.34;;;21.26;71.58
80798;BME280;70202;52.238;10.680;2023-07-16T05:48:44;99806.97;;;21.27;71.42
80798;BME280;70202;52.238;10.680;2023-07-16T05:49:44;99809.63;;;21.28;71.43
80798;BME280;70202;52.238;10.680;2023-07-16T05:50:44;99772.66;;;21.08;71.37
80798;BME280;70202;52.238;10.680;2023-07-16T05:51:45;99798.06;;;21.23;71.29